»·PEaware :: N123SX LXGB-LPMA

N123SX :: LXGB-LPMA

FLIGHT INFORMATION

Flight Status: Arrived
Operator: Privately registered:
United States
More flights under this callsign
Pilot: Shawn G. (7208)
Aircraft: BOEING 757-200
(B752)
More flights by this aircraft type
Origin: LXGB Gibraltar AB
Gibraltar
Destination: LPMA Madeira
Portugal
More flights between these airports :: More routes between these airports
Route: AMPIR UT100 ORTOP LIDRO LIDR1C
File this flight plan on PilotEdge
Remarks:
Altitude:
(Current/Filed)
34,000ft
Speed:
(Current/Filed)
444kts
Departed: 23-Jun-17 08:20 PM
Arrived: 23-Jun-17 10:02 PM
Distance/Time
Traveled:
602nm/1:42
Distance/Time
To Go:
Arrived

Flight Plot

Page will automatically refresh every two minutes.

Flight plan parsing failed; only flown route is shown


Map Options




Map Legend


Flown Route
Filed Route
Departure Airport
Arrival Airport
Navaid (VOR, NDB)
Fix

Horizontal Profiles

Position Reports

Time Latitude Longitude Heading Altitude Ground
Speed
23-Jun-17 19:53 36.152949 -5.342591 214 18ft 0kts
23-Jun-17 19:54 36.152949 -5.342591 214 18ft 0kts
23-Jun-17 19:55 36.152949 -5.342591 214 18ft 0kts
23-Jun-17 19:56 36.152949 -5.342591 214 18ft 0kts
23-Jun-17 19:57 36.152949 -5.342591 214 18ft 0kts
23-Jun-17 19:58 36.152949 -5.342591 214 18ft 0kts
23-Jun-17 19:59 36.152949 -5.342591 214 18ft 0kts
23-Jun-17 20:00 36.152949 -5.342591 214 18ft 0kts
23-Jun-17 20:01 36.152949 -5.342591 214 18ft 0kts
23-Jun-17 20:02 36.152949 -5.342591 214 18ft 0kts
23-Jun-17 20:03 36.152949 -5.342591 214 18ft 0kts
23-Jun-17 20:04 36.152949 -5.342592 214 18ft 0kts
23-Jun-17 20:05 36.152882 -5.342641 209 18ft 0kts
23-Jun-17 20:06 36.152882 -5.342641 209 18ft 0kts
23-Jun-17 20:07 36.152882 -5.342641 209 18ft 0kts
23-Jun-17 20:08 36.152882 -5.342641 209 18ft 0kts
23-Jun-17 20:09 36.152452 -5.341248 84 17ft 8kts
23-Jun-17 20:10 36.152469 -5.340378 92 16ft 0kts
23-Jun-17 20:11 36.152469 -5.340378 92 16ft 0kts
23-Jun-17 20:12 36.152469 -5.340378 92 16ft 0kts
23-Jun-17 20:13 36.152469 -5.340378 92 16ft 0kts
23-Jun-17 20:14 36.152469 -5.340378 92 16ft 0kts
23-Jun-17 20:15 36.152469 -5.340378 92 16ft 0kts
23-Jun-17 20:16 36.152469 -5.340378 92 16ft 0kts
23-Jun-17 20:17 36.152469 -5.340378 92 16ft 0kts
23-Jun-17 20:18 36.152469 -5.340378 92 16ft 0kts
23-Jun-17 20:19 36.152469 -5.340378 92 16ft 0kts
23-Jun-17 20:20 36.152422 -5.340122 114 15ft 3kts
23-Jun-17 20:21 36.151508 -5.340103 266 15ft 0kts
23-Jun-17 20:22 36.151508 -5.340103 266 15ft 0kts
23-Jun-17 20:23 36.151226 -5.348951 267 19ft 130kts
23-Jun-17 20:24 36.125115 -5.365740 172 2678ft 161kts
23-Jun-17 20:25 36.070149 -5.364936 184 4880ft 241kts
23-Jun-17 20:26 36.002469 -5.372396 204 9348ft 284kts
23-Jun-17 20:27 35.981828 -5.458179 290 12978ft 321kts
23-Jun-17 20:28 35.983650 -5.579151 265 15782ft 378kts
23-Jun-17 20:29 35.968920 -5.709074 264 19416ft 392kts
23-Jun-17 20:30 35.951965 -5.843370 264 22768ft 401kts
23-Jun-17 20:31 35.937353 -5.980038 271 25732ft 404kts
23-Jun-17 20:32 35.934750 -6.119254 270 28285ft 411kts
23-Jun-17 20:33 35.931982 -6.260957 269 30793ft 411kts
23-Jun-17 20:34 35.929159 -6.398567 267 33530ft 398kts
23-Jun-17 20:35 35.926083 -6.533931 267 34090ft 394kts
23-Jun-17 20:36 35.922882 -6.672203 267 34130ft 418kts
23-Jun-17 20:37 35.940849 -6.814739 277 34122ft 423kts
23-Jun-17 20:38 35.962589 -6.957055 277 34125ft 423kts
23-Jun-17 20:39 35.984364 -7.099564 277 36347ft 418kts
23-Jun-17 20:40 36.005620 -7.240005 276 38227ft 417kts
23-Jun-17 20:41 36.021681 -7.356854 269 39625ft 413kts
23-Jun-17 20:42 35.999408 -7.493765 253 41145ft 408kts
23-Jun-17 20:43 35.963354 -7.648699 253 42074ft 390kts
23-Jun-17 20:44 35.933011 -7.777265 252 42136ft 397kts
23-Jun-17 20:45 35.901521 -7.909964 252 42136ft 408kts
23-Jun-17 20:46 35.874917 -8.021535 253 41171ft 408kts
23-Jun-17 20:47 35.842680 -8.156001 253 40145ft 414kts
23-Jun-17 20:48 35.809988 -8.291628 253 40127ft 414kts
23-Jun-17 20:49 35.777085 -8.427351 253 40124ft 414kts
23-Jun-17 20:50 35.744001 -8.563071 253 40123ft 414kts
23-Jun-17 20:51 35.711166 -8.697214 252 40134ft 414kts
23-Jun-17 20:52 35.678071 -8.831610 252 38746ft 409kts
23-Jun-17 20:53 35.644690 -8.965065 252 36112ft 408kts
23-Jun-17 20:54 35.611420 -9.098480 252 35440ft 405kts
23-Jun-17 20:55 35.577787 -9.232656 251 34398ft 421kts
23-Jun-17 20:56 35.543094 -9.367688 252 36702ft 412kts
23-Jun-17 20:57 35.509107 -9.501331 252 38459ft 412kts
23-Jun-17 20:58 35.474988 -9.635410 252 40049ft 412kts
23-Jun-17 20:59 35.440800 -9.769150 251 41048ft 413kts
23-Jun-17 21:00 35.406512 -9.902545 251 42126ft 410kts
23-Jun-17 21:01 35.372107 -10.035700 251 42126ft 410kts
23-Jun-17 21:02 35.337523 -10.168907 251 42124ft 410kts
23-Jun-17 21:03 35.302885 -10.301654 251 42122ft 410kts
23-Jun-17 21:04 35.268028 -10.434570 251 42120ft 410kts
23-Jun-17 21:05 35.233102 -10.567085 251 42118ft 410kts
23-Jun-17 21:06 35.198055 -10.699377 251 42131ft 410kts
23-Jun-17 21:07 35.162912 -10.831440 250 41922ft 404kts
23-Jun-17 21:08 35.128271 -10.961072 250 39182ft 403kts
23-Jun-17 21:09 35.093616 -11.089880 249 36289ft 399kts
23-Jun-17 21:10 35.058060 -11.218614 249 32676ft 410kts
23-Jun-17 21:11 35.022145 -11.350417 249 30101ft 407kts
23-Jun-17 21:12 34.985171 -11.485910 249 30084ft 429kts
23-Jun-17 21:13 34.947496 -11.623372 249 30025ft 430kts
23-Jun-17 21:14 34.909438 -11.761406 249 29998ft 430kts
23-Jun-17 21:15 34.871089 -11.899818 249 30004ft 431kts
23-Jun-17 21:16 34.832598 -12.038048 249 30002ft 431kts
23-Jun-17 21:17 34.794153 -12.175401 249 30003ft 433kts
23-Jun-17 21:18 34.755147 -12.314117 249 30034ft 433kts
23-Jun-17 21:19 34.716006 -12.452613 249 30122ft 435kts
23-Jun-17 21:20 34.676639 -12.591225 249 30150ft 435kts
23-Jun-17 21:21 34.636971 -12.730192 248 30158ft 435kts
23-Jun-17 21:22 34.597313 -12.868451 248 30157ft 435kts
23-Jun-17 21:23 34.557328 -13.007161 248 30155ft 434kts
23-Jun-17 21:24 34.517679 -13.144022 248 30153ft 431kts
23-Jun-17 21:25 34.477849 -13.280889 248 30151ft 430kts
23-Jun-17 21:26 34.438044 -13.417010 248 30149ft 430kts
23-Jun-17 21:27 34.398068 -13.553058 248 30147ft 430kts
23-Jun-17 21:28 34.357795 -13.689449 248 30158ft 430kts
23-Jun-17 21:29 34.317594 -13.824996 248 30154ft 430kts
23-Jun-17 21:30 34.277022 -13.961133 248 30153ft 430kts
23-Jun-17 21:31 34.236495 -14.096494 248 30151ft 430kts
23-Jun-17 21:32 34.195639 -14.232321 248 30149ft 430kts
23-Jun-17 21:33 34.154823 -14.367392 248 30147ft 430kts
23-Jun-17 21:34 34.113691 -14.502886 248 30145ft 430kts
23-Jun-17 21:35 34.072480 -14.638019 248 30143ft 430kts
23-Jun-17 21:36 34.032961 -14.766997 247 30152ft 430kts
23-Jun-17 21:37 33.991464 -14.901867 247 30151ft 429kts
23-Jun-17 21:38 33.950041 -15.035971 247 30147ft 425kts
23-Jun-17 21:39 33.908743 -15.168972 246 30145ft 423kts
23-Jun-17 21:40 33.868951 -15.296573 246 28798ft 415kts
23-Jun-17 21:41 33.828501 -15.425636 246 26726ft 409kts
23-Jun-17 21:42 33.788827 -15.551695 246 24694ft 400kts
23-Jun-17 21:43 33.749897 -15.674882 246 22724ft 391kts
23-Jun-17 21:44 33.711622 -15.795564 246 20694ft 383kts
23-Jun-17 21:45 33.670593 -15.911344 234 18741ft 373kts
23-Jun-17 21:46 33.592684 -15.989983 215 16911ft 366kts
23-Jun-17 21:47 33.508617 -16.055683 213 15131ft 360kts
23-Jun-17 21:48 33.427245 -16.117926 213 13619ft 336kts
23-Jun-17 21:49 33.349105 -16.177444 213 12020ft 331kts
23-Jun-17 21:50 33.272087 -16.236058 211 10452ft 329kts
23-Jun-17 21:51 33.203721 -16.287800 209 9623ft 260kts
23-Jun-17 21:52 33.143720 -16.334108 218 9164ft 258kts
23-Jun-17 21:53 33.086286 -16.389448 212 8492ft 278kts
23-Jun-17 21:54 33.019712 -16.440105 207 6905ft 284kts
23-Jun-17 21:55 32.952043 -16.490087 210 5591ft 279kts
23-Jun-17 21:56 32.890831 -16.548032 223 4258ft 278kts
23-Jun-17 21:57 32.834485 -16.608103 223 4017ft 268kts
23-Jun-17 21:58 32.770778 -16.647278 197 3401ft 256kts
23-Jun-17 21:59 32.705742 -16.674375 200 3059ft 230kts
23-Jun-17 22:00 32.649985 -16.696245 198 2554ft 205kts
23-Jun-17 22:01 32.609067 -16.732690 249 2343ft 170kts
23-Jun-17 22:02 32.613172 -16.785514 304 1877ft 166kts
23-Jun-17 22:03 32.649400 -16.802357 7 1123ft 131kts
23-Jun-17 22:04 32.684099 -16.790183 33 425ft 133kts
23-Jun-17 22:05 32.699446 -16.772553 59 197ft 17kts
23-Jun-17 22:06 32.697898 -16.772370 226 195ft 11kts
23-Jun-17 22:07 32.695184 -16.775685 227 182ft 12kts
23-Jun-17 22:08 32.693878 -16.776353 137 177ft 2kts
23-Jun-17 22:09 32.693837 -16.776308 137 177ft 0kts
23-Jun-17 22:10 32.693837 -16.776308 137 177ft 0kts
23-Jun-17 22:11 32.693837 -16.776308 137 177ft 0kts
23-Jun-17 22:12 32.693837 -16.776308 137 177ft 0kts
23-Jun-17 22:13 32.693837 -16.776308 137 177ft 0kts
23-Jun-17 22:14 32.693837 -16.776308 137 177ft 0kts
23-Jun-17 22:15 32.693837 -16.776308 137 177ft 0kts
23-Jun-17 22:16 32.693837 -16.776308 137 177ft 0kts
23-Jun-17 22:17 32.693837 -16.776308 137 177ft 0kts
23-Jun-17 22:18 32.693837 -16.776308 137 177ft 0kts
23-Jun-17 22:19 32.693837 -16.776308 137 177ft 0kts

Navigation Log

Ident Type
Flight plan parsing failed, navigation log unavailable